Time;durP1;ratioP1;P1;durP2;ratioP2;P2;SDS_P1;SDS_P2;PMS_P1;PMS_P2;Temp;Humidity;BMP_temperature;BMP_pressure;BME280_temperature;BME280_humidity;BME280_pressure;Samples;Min_cycle;Max_cycle;Signal;HPM_P1;HPM_P2
2021/05/01 00:02:26;;;;;;;6.55;4.08;;;;;;;11.28;73.32;96302.83;1740326;82;21128;-56
2021/05/01 00:04:54;;;;;;;6.33;3.95;;;;;;;11.20;73.36;96300.00;1749732;81;21565;-55
2021/05/01 00:07:23;;;;;;;4.87;3.70;;;;;;;11.09;73.71;96294.36;1753534;80;21206;-56
2021/05/01 00:09:51;;;;;;;5.83;3.73;;;;;;;11.04;74.00;96291.30;1749349;80;21144;-56
2021/05/01 00:12:18;;;;;;;5.95;3.50;;;;;;;11.00;74.17;96297.66;1768939;80;21164;-55
2021/05/01 00:14:46;;;;;;;5.70;3.25;;;;;;;10.96;74.37;96297.55;1785098;79;21603;-55
2021/05/01 00:17:15;;;;;;;5.30;3.30;;;;;;;10.95;74.56;96303.19;1754249;81;21076;-56
2021/05/01 00:19:43;;;;;;;3.70;2.83;;;;;;;10.96;74.57;96298.85;1736000;82;22365;-55
2021/05/01 00:22:11;;;;;;;3.27;2.75;;;;;;;10.98;74.39;96299.55;1751199;80;21077;-56
2021/05/01 00:24:39;;;;;;;4.03;2.90;;;;;;;10.97;74.36;96303.08;1758120;80;21572;-55
2021/05/01 00:27:07;;;;;;;5.65;2.98;;;;;;;10.91;74.36;96307.47;1747561;80;21168;-56
2021/05/01 00:29:36;;;;;;;4.33;2.98;;;;;;;10.89;74.45;96299.80;1747323;80;21550;-54
2021/05/01 00:32:06;;;;;;;4.95;2.67;;;;;;;10.89;74.47;96302.39;1735991;82;21471;-57
2021/05/01 00:34:34;;;;;;;6.12;2.87;;;;;;;10.90;74.40;96302.72;1765839;80;22439;-56
2021/05/01 00:37:03;;;;;;;4.62;2.75;;;;;;;10.88;74.37;96303.32;1773319;79;21072;-56
2021/05/01 00:39:31;;;;;;;4.85;3.02;;;;;;;10.86;74.38;96300.84;1789778;79;21183;-56
2021/05/01 00:41:59;;;;;;;4.30;2.90;;;;;;;10.86;74.24;96302.63;1783866;79;21116;-54
2021/05/01 00:44:27;;;;;;;6.60;3.52;;;;;;;10.82;74.35;96308.52;1804325;79;21427;-55
2021/05/01 00:46:55;;;;;;;6.20;3.60;;;;;;;10.73;74.34;96309.69;1803328;79;21168;-55
2021/05/01 00:49:24;;;;;;;4.40;2.92;;;;;;;10.61;74.51;96315.34;1791270;79;21551;-57
2021/05/01 00:51:52;;;;;;;5.78;3.50;;;;;;;10.50;75.04;96310.94;1789962;79;21151;-56
2021/05/01 00:54:19;;;;;;;4.80;3.87;;;;;;;10.45;75.34;96313.87;1774771;80;21065;-56
2021/05/01 00:56:48;;;;;;;5.37;4.53;;;;;;;10.43;75.49;96316.23;1730366;80;21812;-55
2021/05/01 00:59:16;;;;;;;5.95;4.50;;;;;;;10.37;75.52;96307.13;1737898;80;21190;-55
2021/05/01 01:01:49;;;;;;;6.40;4.40;;;;;;;10.36;75.97;96304.20;1779057;79;21074;-55
2021/05/01 01:04:18;;;;;;;8.40;4.80;;;;;;;10.39;76.05;96300.53;1782139;79;21105;-56
2021/05/01 01:06:47;;;;;;;8.30;4.20;;;;;;;10.43;75.91;96309.27;1798584;79;21052;-55
2021/05/01 01:09:15;;;;;;;6.97;4.22;;;;;;;10.46;75.82;96305.16;1793071;79;21358;-55
2021/05/01 01:11:42;;;;;;;4.62;4.00;;;;;;;10.53;75.75;96308.59;1809700;79;21085;-55
2021/05/01 01:14:13;;;;;;;5.25;4.00;;;;;;;10.66;75.38;96304.14;1815850;79;21074;-55
2021/05/01 01:16:44;;;;;;;7.65;3.52;;;;;;;10.66;75.38;96304.14;1785239;79;21484;-54
2021/05/01 01:19:11;;;;;;;6.75;3.60;;;;;;;10.73;75.22;96313.09;1790679;79;21116;-57
2021/05/01 01:21:46;;;;;;;4.00;3.60;;;;;;;10.80;75.07;96307.79;1780503;80;21298;-54
2021/05/01 01:24:14;;;;;;;8.68;3.77;;;;;;;10.88;74.59;96315.48;1783599;80;21092;-54
2021/05/01 01:26:42;;;;;;;;;;;;;;;10.88;74.35;96311.11;1767562;80;21074;-55
2021/05/01 01:29:13;;;;;;;5.22;4.00;;;;;;;10.89;74.11;96315.37;1752535;80;20236;-55
2021/05/01 01:31:42;;;;;;;9.33;4.00;;;;;;;10.84;73.87;96323.98;1798884;78;21171;-55
2021/05/01 01:34:09;;;;;;;4.65;3.77;;;;;;;10.75;73.98;96333.75;1760643;80;21344;-55
2021/05/01 01:36:37;;;;;;;5.25;3.75;;;;;;;10.61;74.08;96340.80;1762960;80;21949;-55
2021/05/01 01:39:06;;;;;;;3.80;3.40;;;;;;;10.51;74.49;96346.33;1746396;82;21635;-55
2021/05/01 01:41:34;;;;;;;4.37;2.92;;;;;;;10.45;74.90;96349.36;1745588;82;21501;-55
2021/05/01 01:44:02;;;;;;;4.62;3.02;;;;;;;10.46;75.13;96348.41;1698674;83;21089;-55
2021/05/01 01:46:30;;;;;;;5.37;3.05;;;;;;;10.50;75.08;96343.36;1720399;82;22151;-55
2021/05/01 01:48:57;;;;;;;2.35;2.17;;;;;;;10.53;75.04;96343.14;1714231;83;21243;-55
2021/05/01 01:51:25;;;;;;;3.10;2.83;;;;;;;10.57;74.92;96340.66;1713975;83;21188;-56
2021/05/01 01:53:54;;;;;;;3.47;2.92;;;;;;;10.59;74.88;96340.09;1724993;83;21490;-55
2021/05/01 01:56:22;;;;;;;3.87;3.22;;;;;;;10.62;74.84;96335.13;1721081;82;21061;-55
2021/05/01 01:58:51;;;;;;;4.28;3.45;;;;;;;10.69;74.55;96329.86;1710595;83;21511;-55
2021/05/01 02:01:22;;;;;;;3.47;3.17;;;;;;;10.75;74.31;96332.45;1698360;83;21124;-56
2021/05/01 02:03:51;;;;;;;5.08;3.60;;;;;;;10.80;73.71;96334.22;1707751;83;21085;-55
2021/05/01 02:06:20;;;;;;;4.45;3.00;;;;;;;10.83;73.28;96336.11;1696590;83;26527;-55
2021/05/01 02:08:48;;;;;;;4.35;2.98;;;;;;;10.85;73.16;96334.25;1723651;83;21161;-55
2021/05/01 02:11:16;;;;;;;5.55;3.00;;;;;;;10.82;73.29;96334.47;1706230;83;21213;-55
2021/05/01 02:13:45;;;;;;;5.28;3.17;;;;;;;10.76;73.41;96336.23;1737366;82;21177;-55
2021/05/01 02:16:13;;;;;;;4.00;3.00;;;;;;;10.71;73.59;96329.27;1728061;83;21509;-55
2021/05/01 02:18:41;;;;;;;5.62;3.52;;;;;;;10.66;73.79;96324.89;1737266;82;21529;-55
2021/05/01 02:21:09;;;;;;;8.70;4.12;;;;;;;10.66;73.78;96324.89;1742537;82;21140;-55
2021/05/01 02:23:37;;;;;;;4.65;3.22;;;;;;;10.69;73.49;96322.08;1748924;82;21206;-55
2021/05/01 02:26:05;;;;;;;6.10;3.57;;;;;;;10.69;73.26;96322.08;1742693;81;21133;-56
2021/05/01 02:28:35;;;;;;;4.50;3.60;;;;;;;10.67;73.30;96322.63;1717688;82;21104;-55
2021/05/01 02:31:02;;;;;;;3.70;3.12;;;;;;;10.68;73.24;96320.41;1748838;82;21501;-54
2021/05/01 02:33:30;;;;;;;5.40;3.42;;;;;;;10.65;73.17;96316.74;1730866;80;21061;-54
2021/05/01 02:35:59;;;;;;;4.58;3.35;;;;;;;10.58;73.33;96315.56;1741124;82;21195;-55
2021/05/01 02:38:27;;;;;;;5.25;3.35;;;;;;;10.53;73.47;96309.41;1717817;82;21232;-55
2021/05/01 02:40:55;;;;;;;5.53;3.00;;;;;;;10.52;73.53;96307.75;1747074;82;21165;-55
2021/05/01 02:43:23;;;;;;;5.95;2.85;;;;;;;10.55;73.58;96298.44;1749208;82;21065;-55
2021/05/01 02:45:51;;;;;;;5.40;3.10;;;;;;;10.56;73.63;96301.41;1743026;82;21061;-55
2021/05/01 02:48:22;;;;;;;3.10;2.80;;;;;;;10.48;73.73;96313.64;1747368;82;21383;-55
2021/05/01 02:50:49;;;;;;;3.80;3.15;;;;;;;10.40;73.85;96309.50;1720349;82;21130;-54
2021/05/01 02:53:17;;;;;;;4.28;3.00;;;;;;;10.32;74.04;96319.61;1740488;82;21137;-55
2021/05/01 02:55:48;;;;;;;;;;;;;;;10.25;74.14;96319.20;1743461;81;21147;-54
2021/05/01 02:58:16;;;;;;;7.05;3.00;;;;;;;10.20;74.42;96314.02;1738453;82;20496;-55
2021/05/01 03:00:45;;;;;;;3.33;3.00;;;;;;;10.13;74.67;96324.83;1707255;83;22410;-55
2021/05/01 03:03:13;;;;;;;3.85;2.95;;;;;;;10.11;74.77;96338.38;1719294;82;21126;-55
2021/05/01 03:05:41;;;;;;;3.67;2.90;;;;;;;10.06;74.93;96327.48;1717420;83;21081;-55
2021/05/01 03:08:08;;;;;;;4.33;2.85;;;;;;;10.06;75.23;96324.08;1727798;82;21150;-55
2021/05/01 03:10:36;;;;;;;3.20;2.80;;;;;;;10.06;75.22;96326.19;1741531;82;21548;-55
2021/05/01 03:13:04;;;;;;;5.37;3.02;;;;;;;10.08;75.21;96319.60;1736095;82;21354;-55
2021/05/01 03:15:31;;;;;;;3.30;2.90;;;;;;;10.09;75.37;96325.97;1724632;83;21086;-55
2021/05/01 03:18:00;;;;;;;4.25;2.87;;;;;;;10.14;75.39;96326.94;1748897;82;21157;-55
2021/05/01 03:20:28;;;;;;;5.85;3.12;;;;;;;10.18;75.15;96324.50;1747163;82;21125;-55
2021/05/01 03:22:56;;;;;;;4.33;3.17;;;;;;;10.15;75.25;96318.23;1726411;82;21181;-54
2021/05/01 03:25:25;;;;;;;4.28;3.65;;;;;;;10.14;75.25;96314.80;1722262;82;21399;-57
2021/05/01 03:27:52;;;;;;;5.00;3.10;;;;;;;10.17;75.15;96314.23;1730039;82;21082;-54
2021/05/01 03:30:21;;;;;;;3.60;3.30;;;;;;;10.16;75.15;96313.39;1742272;82;21111;-54
2021/05/01 03:32:49;;;;;;;3.50;3.20;;;;;;;10.20;75.12;96314.83;1724226;81;21153;-54
2021/05/01 03:35:17;;;;;;;5.42;3.52;;;;;;;10.32;74.86;96307.94;1794359;79;21188;-54
2021/05/01 03:37:45;;;;;;;4.22;3.12;;;;;;;10.47;74.09;96311.16;1805914;79;21335;-54
2021/05/01 03:40:14;;;;;;;3.85;2.92;;;;;;;10.60;73.77;96308.00;1801328;78;21064;-55
2021/05/01 03:42:41;;;;;;;;;;;;;;;10.85;73.26;96304.40;1786445;79;21092;-56
2021/05/01 03:45:13;;;;;;;4.12;3.22;;;;;;;11.16;72.35;96308.52;1784639;79;20211;-55
2021/05/01 03:47:41;;;;;;;3.92;2.90;;;;;;;11.30;71.46;96313.95;1807133;79;21036;-55
2021/05/01 03:50:11;;;;;;;7.05;3.30;;;;;;;11.27;70.93;96318.56;1804960;79;21252;-55
2021/05/01 03:52:39;;;;;;;5.45;3.08;;;;;;;11.21;71.03;96321.96;1802390;79;21179;-55
2021/05/01 03:55:08;;;;;;;19.65;12.10;;;;;;;11.34;70.71;96308.03;1815227;79;21110;-57
2021/05/01 03:57:38;;;;;;;9.00;6.95;;;;;;;11.70;70.11;96312.09;1811870;79;21144;-54
2021/05/01 04:00:08;;;;;;;4.08;3.15;;;;;;;12.15;68.61;96312.00;1807753;77;21124;-55
2021/05/01 04:02:36;;;;;;;4.03;3.58;;;;;;;12.53;67.38;96311.08;1804588;78;21418;-56
2021/05/01 04:05:07;;;;;;;3.92;3.37;;;;;;;12.79;66.06;96309.39;1799326;79;21088;-56
2021/05/01 04:07:36;;;;;;;3.52;3.22;;;;;;;13.07;65.27;96315.69;1801152;79;21124;-56
2021/05/01 04:10:06;;;;;;;4.20;3.10;;;;;;;13.42;63.74;96316.62;1817235;77;21119;-55
2021/05/01 04:12:33;;;;;;;3.95;3.05;;;;;;;13.71;62.56;96322.38;1796179;77;21075;-55
2021/05/01 04:15:02;;;;;;;5.20;3.37;;;;;;;13.92;62.50;96322.27;1817898;77;21379;-56
2021/05/01 04:17:31;;;;;;;6.62;3.67;;;;;;;14.20;62.31;96324.23;1778392;79;21091;-55
2021/05/01 04:19:59;;;;;;;10.95;7.83;;;;;;;14.29;61.32;96317.70;1770189;79;21137;-55
2021/05/01 04:22:27;;;;;;;60.40;27.90;;;;;;;14.07;61.73;96321.88;1805540;79;21137;-56
2021/05/01 04:24:55;;;;;;;9.43;5.70;;;;;;;14.01;62.22;96326.33;1812775;77;21514;-56
2021/05/01 04:27:23;;;;;;;3.80;3.35;;;;;;;14.14;61.76;96328.19;1805380;77;21355;-55
2021/05/01 04:29:51;;;;;;;4.00;3.60;;;;;;;14.43;61.64;96326.89;1815222;77;21132;-55
2021/05/01 04:32:19;;;;;;;3.50;3.20;;;;;;;15.00;60.58;96326.11;1790268;79;21065;-55
2021/05/01 04:34:48;;;;;;;5.60;3.22;;;;;;;15.52;58.88;96326.45;1773193;79;21208;-56
2021/05/01 04:37:15;;;;;;;6.62;3.72;;;;;;;15.87;57.09;96322.32;1813379;77;21164;-56
2021/05/01 04:39:44;;;;;;;6.47;3.27;;;;;;;16.06;57.10;96316.61;1803272;77;21197;-59
2021/05/01 04:42:13;;;;;;;4.55;3.22;;;;;;;16.33;56.31;96320.92;1802497;79;21125;-56
2021/05/01 04:44:42;;;;;;;3.90;3.25;;;;;;;16.51;55.25;96313.89;1807379;77;21116;-56
2021/05/01 04:47:11;;;;;;;9.98;4.70;;;;;;;16.47;55.27;96313.03;1743515;79;21136;-57
2021/05/01 04:49:41;;;;;;;5.62;4.85;;;;;;;16.45;55.51;96313.19;1771481;79;21201;-58
2021/05/01 04:52:09;;;;;;;4.90;4.40;;;;;;;16.51;55.23;96314.36;1804269;79;22826;-56
2021/05/01 04:54:37;;;;;;;6.75;4.90;;;;;;;16.62;54.65;96313.31;1799151;79;21509;-56
2021/05/01 04:57:06;;;;;;;8.87;4.43;;;;;;;16.69;54.96;96314.33;1771998;79;21175;-56
2021/05/01 04:59:35;;;;;;;5.22;4.25;;;;;;;17.05;54.70;96309.02;1797440;78;21153;-59
2021/05/01 05:02:04;;;;;;;8.53;5.97;;;;;;;17.71;53.38;96314.05;1816543;77;21095;-59
2021/05/01 05:04:33;;;;;;;7.85;5.87;;;;;;;18.29;51.57;96311.08;1818104;77;22321;-59
2021/05/01 05:07:01;;;;;;;10.60;6.65;;;;;;;18.86;50.82;96303.67;1808031;77;21134;-59
2021/05/01 05:09:30;;;;;;;9.18;6.37;;;;;;;19.37;49.60;96304.68;1749584;79;21070;-57
2021/05/01 05:11:58;;;;;;;8.43;6.08;;;;;;;19.96;48.47;96305.58;1811567;77;21196;-57
2021/05/01 05:14:27;;;;;;;10.50;6.17;;;;;;;21.07;46.03;96307.82;1811228;77;21619;-58
2021/05/01 05:16:55;;;;;;;6.37;5.78;;;;;;;21.07;46.03;96307.82;1798611;77;21530;-56
2021/05/01 05:19:23;;;;;;;7.90;5.10;;;;;;;21.55;45.13;96312.27;1787822;77;21058;-57
2021/05/01 05:21:52;;;;;;;;;;;;;;;21.78;43.98;96308.69;1807329;79;21058;-57
2021/05/01 05:24:21;;;;;;;5.95;5.08;;;;;;;21.68;44.09;96299.73;1810741;77;21187;-57
2021/05/01 05:26:48;;;;;;;5.45;4.72;;;;;;;21.68;44.24;96295.78;1781559;79;21529;-58
2021/05/01 05:29:17;;;;;;;6.03;4.97;;;;;;;21.78;44.07;96305.53;1813224;77;21210;-57
2021/05/01 05:31:44;;;;;;;6.72;4.58;;;;;;;22.01;43.75;96296.65;1805747;79;21505;-56
2021/05/01 05:34:12;;;;;;;7.40;5.05;;;;;;;22.36;43.17;96290.20;1772781;79;21094;-57
2021/05/01 05:36:40;;;;;;;5.12;4.53;;;;;;;22.63;41.73;96293.87;1757424;80;21085;-57
2021/05/01 05:39:09;;;;;;;4.53;3.55;;;;;;;22.50;41.67;96298.56;1743089;80;21088;-56
2021/05/01 05:41:37;;;;;;;6.05;4.92;;;;;;;22.47;41.93;96306.03;1749434;80;22275;-56
2021/05/01 05:44:05;;;;;;;9.43;5.22;;;;;;;22.61;41.95;96307.80;1758868;80;21160;-56
2021/05/01 05:46:33;;;;;;;;;;;;;;;22.84;41.67;96312.85;1744620;80;21059;-57
2021/05/01 05:49:02;;;;;;;7.77;5.43;;;;;;;22.81;41.63;96308.45;1733420;82;20264;-57
2021/05/01 05:51:32;;;;;;;8.75;4.80;;;;;;;22.81;41.63;96308.45;1768285;80;22257;-57
2021/05/01 05:54:00;;;;;;;6.50;4.35;;;;;;;22.92;41.62;96303.96;1748907;80;21276;-58
2021/05/01 05:56:28;;;;;;;7.27;3.97;;;;;;;23.06;41.14;96290.30;1750135;80;21152;-57
2021/05/01 05:58:56;;;;;;;4.50;3.90;;;;;;;23.09;41.01;96286.82;1757018;80;21838;-57
2021/05/01 06:01:26;;;;;;;3.40;3.10;;;;;;;23.04;41.13;96275.94;1746202;80;21113;-57
2021/05/01 06:03:55;;;;;;;4.22;3.30;;;;;;;22.97;40.98;96279.06;1758918;80;22228;-55
2021/05/01 06:06:31;;;;;;;4.03;3.10;;;;;;;22.74;41.32;96290.70;1739476;80;21359;-56
2021/05/01 06:08:59;;;;;;;6.30;3.20;;;;;;;22.55;41.83;96301.45;1748827;80;21235;-58
2021/05/01 06:11:29;;;;;;;4.67;3.05;;;;;;;22.56;42.11;96298.30;1768988;80;21114;-57
2021/05/01 06:14:03;;;;;;;4.60;3.30;;;;;;;22.72;41.87;96301.98;1768668;80;21172;-57
2021/05/01 06:16:31;;;;;;;6.37;3.50;;;;;;;23.21;41.29;96302.96;1759396;80;21094;-55
2021/05/01 06:18:59;;;;;;;8.50;6.45;;;;;;;23.82;39.69;96303.57;1729351;82;21568;-55
2021/05/01 06:21:27;;;;;;;9.38;5.40;;;;;;;24.13;39.53;96310.19;1746896;80;21552;-56
2021/05/01 06:23:56;;;;;;;5.40;3.30;;;;;;;24.21;39.78;96303.38;1760898;80;21203;-57
2021/05/01 06:26:24;;;;;;;3.85;2.80;;;;;;;24.07;39.33;96295.08;1759778;80;21064;-55
2021/05/01 06:28:52;;;;;;;4.53;3.02;;;;;;;23.40;40.22;96289.50;1754656;81;21093;-56
2021/05/01 06:31:23;;;;;;;9.75;3.17;;;;;;;22.52;41.50;96282.00;1746113;80;21091;-56
2021/05/01 06:33:51;;;;;;;5.42;3.25;;;;;;;21.65;43.49;96288.22;1780797;79;21121;-56
2021/05/01 06:36:24;;;;;;;5.60;4.08;;;;;;;21.24;44.60;96289.50;1746260;80;21121;-58
2021/05/01 06:38:54;;;;;;;6.03;4.03;;;;;;;20.98;45.65;96279.41;1740192;80;21050;-55
2021/05/01 06:41:21;;;;;;;6.45;4.30;;;;;;;20.67;45.77;96279.05;1755113;80;21141;-56
2021/05/01 06:44:06;;;;;;;7.28;4.55;;;;;;;20.18;46.92;96272.83;1739253;82;21294;-56
2021/05/01 06:46:40;;;;;;;6.22;4.35;;;;;;;19.80;47.82;96272.29;1761554;80;21473;-56
2021/05/01 06:49:13;;;;;;;11.85;5.40;;;;;;;19.80;48.35;96268.81;1765410;79;21196;-56
2021/05/01 06:51:41;;;;;;;8.65;5.20;;;;;;;19.82;48.62;96276.88;1730983;82;21061;-58
2021/05/01 06:54:10;;;;;;;8.35;4.35;;;;;;;19.65;49.38;96277.92;1750325;81;21204;-55
2021/05/01 06:56:43;;;;;;;8.30;3.92;;;;;;;19.54;49.65;96279.61;1757601;80;21167;-55
2021/05/01 06:59:11;;;;;;;10.13;5.22;;;;;;;19.42;49.21;96269.98;1758478;80;21110;-55
2021/05/01 07:01:40;;;;;;;8.60;4.53;;;;;;;19.18;50.28;96270.41;1757947;81;21140;-56
2021/05/01 07:04:09;;;;;;;8.00;5.72;;;;;;;19.11;49.85;96267.64;1755633;81;21150;-55
2021/05/01 07:06:37;;;;;;;10.20;6.90;;;;;;;18.99;50.40;96273.42;1751237;81;21126;-56
2021/05/01 07:09:06;;;;;;;7.95;5.03;;;;;;;18.95;50.81;96275.58;1727396;81;21487;-56
2021/05/01 07:11:34;;;;;;;;;;;;;;;18.97;50.37;96266.21;1744338;81;21128;-57
2021/05/01 07:14:03;;;;;;;6.78;4.78;;;;;;;19.00;50.67;96265.38;1748004;81;20240;-55
2021/05/01 07:16:34;;;;;;;5.97;4.72;;;;;;;19.18;50.10;96263.84;1738519;81;21172;-55
2021/05/01 07:19:03;;;;;;;6.90;4.40;;;;;;;19.43;49.96;96263.23;1758166;81;21505;-56
2021/05/01 07:21:30;;;;;;;5.07;3.93;;;;;;;20.04;48.78;96254.17;1752607;81;21576;-57
2021/05/01 07:24:00;;;;;;;10.88;4.58;;;;;;;20.78;46.07;96243.52;1730906;81;21089;-58
2021/05/01 07:26:29;;;;;;;6.33;3.58;;;;;;;21.58;45.94;96245.07;1729800;80;21125;-56
2021/05/01 07:28:57;;;;;;;5.92;3.80;;;;;;;22.41;43.95;96244.19;1735014;81;21140;-56
2021/05/01 07:31:30;;;;;;;3.60;3.00;;;;;;;23.21;41.87;96250.03;1741270;82;21143;-57
2021/05/01 07:33:59;;;;;;;4.90;3.27;;;;;;;23.81;39.94;96244.13;1737110;82;21384;-56
2021/05/01 07:36:34;;;;;;;3.67;2.90;;;;;;;24.01;38.30;96242.39;1673184;83;21144;-57
2021/05/01 07:39:03;;;;;;;6.78;3.55;;;;;;;23.98;38.82;96234.00;1726327;82;21073;-56
2021/05/01 07:41:32;;;;;;;3.95;3.00;;;;;;;23.96;38.66;96229.42;1746007;81;21491;-57
2021/05/01 07:44:00;;;;;;;3.55;3.00;;;;;;;23.66;38.76;96237.16;1718526;83;21116;-56
2021/05/01 07:46:32;;;;;;;2.65;2.40;;;;;;;23.52;39.14;96232.34;1732780;82;21219;-56
2021/05/01 07:49:00;;;;;;;2.80;2.52;;;;;;;23.75;37.19;96227.22;1732715;82;21149;-56
2021/05/01 07:51:34;;;;;;;2.55;2.35;;;;;;;23.49;37.52;96232.73;1720212;83;21167;-56
2021/05/01 07:54:04;;;;;;;3.30;3.00;;;;;;;23.75;38.25;96233.00;1732471;82;21108;-56
2021/05/01 07:56:31;;;;;;;4.40;3.00;;;;;;;24.01;38.34;96230.95;1750618;81;21056;-56
2021/05/01 07:59:01;;;;;;;4.67;3.05;;;;;;;24.21;38.28;96230.48;1752018;82;21200;-56
2021/05/01 08:01:30;;;;;;;4.50;2.87;;;;;;;24.37;37.57;96223.94;1744330;81;21080;-56
2021/05/01 08:03:59;;;;;;;3.47;2.72;;;;;;;24.31;37.87;96218.14;1764835;80;21167;-55
2021/05/01 08:06:28;;;;;;;3.33;2.72;;;;;;;24.52;37.44;96221.07;1753730;80;21088;-56
2021/05/01 08:08:56;;;;;;;2.75;2.55;;;;;;;24.75;37.09;96227.33;1703761;84;21217;-57
2021/05/01 08:11:25;;;;;;;3.87;3.20;;;;;;;24.99;36.81;96223.17;1722030;82;21443;-57
2021/05/01 08:13:53;;;;;;;3.00;2.77;;;;;;;25.08;37.21;96226.44;1707006;82;21093;-57
2021/05/01 08:16:21;;;;;;;3.63;3.10;;;;;;;25.23;36.33;96230.66;1702236;84;21059;-56
2021/05/01 08:18:52;;;;;;;3.60;3.05;;;;;;;25.43;36.67;96226.63;1720868;82;21110;-56
2021/05/01 08:21:19;;;;;;;4.58;3.02;;;;;;;25.83;35.27;96217.94;1710365;82;21126;-56
2021/05/01 08:23:48;;;;;;;4.00;3.00;;;;;;;26.10;35.31;96209.81;1726704;82;21211;-57
2021/05/01 08:26:16;;;;;;;3.72;2.80;;;;;;;26.64;35.34;96206.23;1706831;82;21630;-56
2021/05/01 08:28:43;;;;;;;5.33;2.55;;;;;;;27.23;34.14;96207.16;1721120;82;21153;-56
2021/05/01 08:31:14;;;;;;;4.37;2.77;;;;;;;27.84;32.99;96204.03;1748993;82;21071;-55
2021/05/01 08:33:42;;;;;;;4.65;2.83;;;;;;;28.37;32.25;96203.76;1734694;82;21469;-56
2021/05/01 08:36:12;;;;;;;4.05;2.62;;;;;;;28.86;31.36;96200.36;1744912;82;21090;-56
2021/05/01 08:38:40;;;;;;;2.77;2.58;;;;;;;29.03;30.49;96196.97;1749691;82;21613;-56
2021/05/01 08:41:08;;;;;;;;;;;;;;;28.67;30.46;96198.36;1753204;81;21133;-55
2021/05/01 08:43:37;;;;;;;3.40;2.60;;;;;;;28.05;30.38;96202.73;1722551;82;20586;-55
2021/05/01 08:46:14;;;;;;;6.60;2.80;;;;;;;27.53;31.70;96205.87;1720599;83;21490;-55
2021/05/01 08:48:46;;;;;;;5.85;3.08;;;;;;;27.54;31.43;96200.33;1720374;83;21217;-56
2021/05/01 08:51:16;;;;;;;4.12;2.87;;;;;;;27.50;32.06;96192.51;1724646;82;21170;-55
2021/05/01 08:53:44;;;;;;;25.43;22.52;;;;;;;27.76;32.22;96187.03;1737380;82;21216;-54
2021/05/01 08:56:12;;;;;;;33.67;25.63;;;;;;;27.98;32.27;96182.00;1733399;82;21072;-54
2021/05/01 08:58:41;;;;;;;5.20;3.40;;;;;;;28.16;31.68;96182.45;1742986;82;21354;-55
2021/05/01 09:01:13;;;;;;;4.75;2.75;;;;;;;28.09;31.50;96184.72;1745512;82;22320;-55
2021/05/01 09:03:43;;;;;;;5.95;2.50;;;;;;;27.56;31.38;96184.64;1729628;82;21101;-54
2021/05/01 09:06:11;;;;;;;3.75;2.70;;;;;;;27.04;32.31;96183.21;1734051;82;21086;-55
2021/05/01 09:08:42;;;;;;;3.37;3.08;;;;;;;26.86;32.90;96184.02;1725214;81;21152;-55
2021/05/01 09:11:11;;;;;;;4.78;2.50;;;;;;;26.81;32.92;96181.22;1706336;83;21085;-55
2021/05/01 09:13:48;;;;;;;3.85;2.58;;;;;;;26.77;33.18;96172.03;1723461;82;21555;-56
2021/05/01 09:16:16;;;;;;;4.62;2.70;;;;;;;26.74;33.39;96168.47;1696468;83;21193;-57
2021/05/01 09:18:58;;;;;;;3.12;2.75;;;;;;;27.09;33.15;96171.87;1743524;82;21089;-55
2021/05/01 09:21:28;;;;;;;2.00;1.90;;;;;;;27.32;32.85;96165.38;1751797;82;21102;-55
2021/05/01 09:23:57;;;;;;;2.22;1.72;;;;;;;27.36;30.54;96165.20;1723883;82;21663;-55
2021/05/01 09:26:39;;;;;;;2.52;2.33;;;;;;;27.02;31.57;96163.16;1750124;82;21366;-55
2021/05/01 09:29:09;;;;;;;4.33;2.50;;;;;;;26.75;32.24;96159.47;1750153;81;21165;-56
2021/05/01 09:31:44;;;;;;;2.47;2.20;;;;;;;26.40;33.55;96144.84;1751139;82;21137;-56
2021/05/01 09:34:12;;;;;;;3.95;2.90;;;;;;;26.21;33.77;96148.49;1751464;81;21519;-55
2021/05/01 09:36:41;;;;;;;2.77;2.42;;;;;;;26.00;34.46;96155.80;1813190;78;21492;-54
2021/05/01 09:39:12;;;;;;;3.93;2.70;;;;;;;25.76;34.25;96158.72;1797396;79;21634;-55
2021/05/01 09:41:43;;;;;;;3.27;2.92;;;;;;;25.36;34.71;96156.28;1782213;79;21062;-55
2021/05/01 09:44:18;;;;;;;4.15;3.10;;;;;;;24.96;35.16;96155.91;1772014;80;21081;-55
2021/05/01 09:46:53;;;;;;;4.12;3.12;;;;;;;24.67;35.77;96153.77;1781515;79;21573;-55
2021/05/01 09:49:25;;;;;;;6.08;2.50;;;;;;;24.52;36.02;96154.77;1775180;79;21117;-54
2021/05/01 09:52:11;;;;;;;4.00;2.22;;;;;;;24.44;35.67;96149.20;1808457;79;22072;-54
2021/05/01 09:54:44;;;;;;;2.22;1.85;;;;;;;24.43;35.29;96157.36;1762179;79;21128;-54
2021/05/01 09:57:20;;;;;;;2.12;1.95;;;;;;;24.22;33.41;96159.20;1764131;80;21588;-55
2021/05/01 09:59:54;;;;;;;3.08;1.82;;;;;;;23.76;33.38;96160.48;1786508;80;21095;-55
2021/05/01 10:02:34;;;;;;;5.45;2.42;;;;;;;23.27;35.25;96156.62;1799363;79;21060;-55
2021/05/01 10:05:12;;;;;;;2.40;1.62;;;;;;;23.00;36.31;96158.30;1750344;79;21285;-56
2021/05/01 10:07:50;;;;;;;4.85;1.62;;;;;;;22.91;36.18;96152.37;1760731;79;21144;-54
2021/05/01 10:10:21;;;;;;;3.52;2.10;;;;;;;22.88;36.72;96160.70;1783272;79;21066;-55
2021/05/01 10:12:50;;;;;;;6.45;2.45;;;;;;;22.83;36.70;96158.31;1796466;79;21124;-55
2021/05/01 10:15:24;;;;;;;4.05;2.00;;;;;;;22.68;37.93;96169.02;1784319;79;21124;-55
2021/05/01 10:17:55;;;;;;;5.33;2.30;;;;;;;22.67;37.61;96158.95;1806643;79;21383;-54
2021/05/01 10:20:24;;;;;;;4.08;2.40;;;;;;;22.54;37.97;96167.63;1785145;79;21140;-55
2021/05/01 10:22:54;;;;;;;3.22;1.50;;;;;;;22.38;38.23;96171.88;1815959;78;21078;-54
2021/05/01 10:25:26;;;;;;;4.40;2.22;;;;;;;22.31;38.09;96168.39;1805870;79;21049;-56
2021/05/01 10:27:59;;;;;;;6.22;2.90;;;;;;;22.23;38.83;96164.83;1732163;80;21061;-54
2021/05/01 10:30:36;;;;;;;4.12;2.60;;;;;;;22.24;38.81;96173.59;1780296;79;21376;-54
2021/05/01 10:36:10;;;;;;;5.40;2.62;;;;;;;22.40;39.41;96177.78;1820410;77;21057;-54
2021/05/01 10:38:39;;;;;;;6.58;2.33;;;;;;;22.54;38.42;96176.88;1801447;79;21203;-54
2021/05/01 10:41:15;;;;;;;5.62;2.65;;;;;;;22.57;38.56;96182.29;1792695;79;21156;-54
2021/05/01 10:43:51;;;;;;;3.85;1.87;;;;;;;22.58;37.89;96182.58;1813832;79;21394;-54
2021/05/01 10:46:29;;;;;;;3.95;1.80;;;;;;;22.52;36.30;96195.28;1813930;79;21077;-54
2021/05/01 10:49:06;;;;;;;8.45;6.58;;;;;;;22.28;37.28;96189.87;1777168;79;21556;-54
2021/05/01 10:51:43;;;;;;;13.20;7.92;;;;;;;22.18;37.40;96198.13;1731882;82;21068;-54
2021/05/01 10:54:21;;;;;;;5.35;3.22;;;;;;;22.12;36.99;96212.09;1737903;82;21595;-54
2021/05/01 10:56:54;;;;;;;5.53;2.95;;;;;;;22.05;36.83;96230.53;1713562;82;21344;-54
2021/05/01 10:59:27;;;;;;;1.70;1.55;;;;;;;21.91;38.59;96234.05;1710156;82;21526;-54
2021/05/01 11:01:57;;;;;;;4.53;1.82;;;;;;;21.59;40.33;96227.73;1712007;83;21102;-54
2021/05/01 11:04:28;;;;;;;2.60;1.90;;;;;;;21.09;41.08;96222.25;1731447;82;21056;-55
2021/05/01 11:07:21;;;;;;;3.17;1.82;;;;;;;20.75;41.61;96218.33;1742364;81;21072;-55
2021/05/01 11:09:51;;;;;;;3.33;1.77;;;;;;;20.43;42.67;96217.30;1759274;81;21196;-55
2021/05/01 11:12:23;;;;;;;2.20;1.90;;;;;;;20.18;43.58;96223.63;1736672;81;21163;-56
2021/05/01 11:15:09;;;;;;;5.45;2.30;;;;;;;19.97;44.45;96228.73;1717701;82;21487;-62
2021/05/01 11:17:41;;;;;;;3.72;2.00;;;;;;;19.77;45.20;96234.47;1731834;82;21208;-53
2021/05/01 11:20:16;;;;;;;4.65;2.20;;;;;;;19.67;46.08;96235.97;1733274;81;21213;-54
2021/05/01 11:22:51;;;;;;;3.60;1.98;;;;;;;19.62;47.00;96233.05;1744422;81;21474;-54
2021/05/01 11:25:22;;;;;;;14.75;8.93;;;;;;;19.60;47.42;96228.94;1742569;81;21536;-53
2021/05/01 11:27:52;;;;;;;45.55;19.90;;;;;;;19.52;46.84;96228.98;1762175;81;21101;-54
2021/05/01 11:30:23;;;;;;;10.53;5.50;;;;;;;19.42;46.39;96225.25;1709829;82;21131;-58
2021/05/01 11:32:52;;;;;;;7.65;3.65;;;;;;;19.37;46.56;96235.47;1772285;80;21077;-55
2021/05/01 11:35:23;;;;;;;5.50;3.25;;;;;;;19.38;46.91;96228.73;1736606;81;21186;-58
2021/05/01 11:38:00;;;;;;;5.08;2.92;;;;;;;19.45;48.12;96224.41;1752614;80;21105;-53
2021/05/01 11:40:32;;;;;;;4.53;3.85;;;;;;;19.48;48.82;96224.56;1765863;80;21136;-54
2021/05/01 11:43:00;;;;;;;5.62;2.50;;;;;;;19.51;49.05;96225.55;1740938;82;21204;-53
2021/05/01 11:45:48;;;;;;;7.05;2.65;;;;;;;19.61;49.12;96221.37;1754193;81;26418;-53
2021/05/01 11:48:33;;;;;;;3.83;2.53;;;;;;;19.63;49.21;96214.92;1761123;80;21368;-53
2021/05/01 11:51:03;;;;;;;5.35;2.45;;;;;;;19.63;48.95;96204.40;1777025;80;21092;-53